createdAt,value
2018-08-13T00:00:45.162Z,2.40
2018-08-13T00:03:12.836Z,2.83
2018-08-13T00:05:40.549Z,4.73
2018-08-13T00:08:08.232Z,2.43
2018-08-13T00:10:35.623Z,2.93
2018-08-13T00:13:03.149Z,4.70
2018-08-13T00:15:31.170Z,3.17
2018-08-13T00:17:59.489Z,3.53
2018-08-13T00:20:27.038Z,2.67
2018-08-13T00:22:54.486Z,2.07
2018-08-13T00:25:21.871Z,2.33
2018-08-13T00:27:49.356Z,2.57
2018-08-13T00:30:16.812Z,2.70
2018-08-13T00:32:44.535Z,2.60
2018-08-13T00:35:12.059Z,2.10
2018-08-13T00:37:39.532Z,2.83
2018-08-13T00:40:08.081Z,2.73
2018-08-13T00:42:35.684Z,2.33
2018-08-13T00:45:04.059Z,2.63
2018-08-13T00:47:31.555Z,2.33
2018-08-13T00:49:59.015Z,2.27
2018-08-13T00:52:26.558Z,2.40
2018-08-13T00:54:54.164Z,2.27
2018-08-13T00:57:21.906Z,2.33
2018-08-13T00:59:49.295Z,2.53
2018-08-13T01:02:16.831Z,2.00
2018-08-13T01:04:44.303Z,2.33
2018-08-13T01:07:11.905Z,1.87
2018-08-13T01:09:39.437Z,2.30
2018-08-13T01:12:07.097Z,1.97
2018-08-13T01:14:35.262Z,2.70
2018-08-13T01:17:02.839Z,2.50
2018-08-13T01:19:30.552Z,1.60
2018-08-13T01:21:59.029Z,2.30
2018-08-13T01:24:26.620Z,2.33
2018-08-13T01:26:54.280Z,2.40
2018-08-13T01:29:21.831Z,2.47
2018-08-13T01:31:49.375Z,2.17
2018-08-13T01:34:16.869Z,2.10
2018-08-13T01:36:44.416Z,2.50
2018-08-13T01:39:11.988Z,1.90
2018-08-13T01:41:39.537Z,1.93
2018-08-13T01:44:07.140Z,1.70
2018-08-13T01:46:35.020Z,1.80
2018-08-13T01:49:02.568Z,1.80
2018-08-13T01:51:30.029Z,2.30
2018-08-13T01:53:57.655Z,2.30
2018-08-13T01:56:25.161Z,1.97
2018-08-13T01:58:52.605Z,2.20
2018-08-13T02:01:20.122Z,2.73
2018-08-13T02:16:52.193Z,1.93
2018-08-13T02:19:19.883Z,1.77
2018-08-13T02:21:47.406Z,2.33
2018-08-13T02:24:14.928Z,1.80
2018-08-13T02:26:42.427Z,2.27
2018-08-13T02:29:10.055Z,2.00
2018-08-13T02:31:37.557Z,1.83
2018-08-13T02:34:05.232Z,1.73
2018-08-13T02:36:32.773Z,2.03
2018-08-13T02:39:00.358Z,2.00
2018-08-13T02:41:27.777Z,1.60
2018-08-13T02:43:55.430Z,2.23
2018-08-13T02:46:22.976Z,2.30
2018-08-13T02:48:50.468Z,2.00
2018-08-13T02:51:17.988Z,2.10
2018-08-13T02:53:45.643Z,2.30
2018-08-13T02:56:13.184Z,2.20
2018-08-13T02:58:40.748Z,2.03
2018-08-13T03:01:08.730Z,1.60
2018-08-13T03:03:36.300Z,1.70
2018-08-13T03:06:04.044Z,1.80
2018-08-13T03:08:31.543Z,2.20
2018-08-13T03:10:59.255Z,2.10
2018-08-13T03:13:26.952Z,1.63
2018-08-13T03:15:54.435Z,1.93
2018-08-13T03:18:21.963Z,2.10
2018-08-13T03:20:49.602Z,2.10
2018-08-13T03:23:17.081Z,2.13
2018-08-13T03:25:44.619Z,2.10
2018-08-13T03:28:12.827Z,2.00
2018-08-13T03:30:40.496Z,2.23
2018-08-13T03:33:08.123Z,1.87
2018-08-13T03:35:35.643Z,1.83
2018-08-13T03:38:03.172Z,2.17
2018-08-13T03:40:30.736Z,1.87
2018-08-13T03:42:58.221Z,2.27
2018-08-13T03:45:25.759Z,2.30
2018-08-13T03:47:53.321Z,1.57
2018-08-13T03:50:20.765Z,2.53
2018-08-13T03:52:48.254Z,2.07
2018-08-13T03:55:15.829Z,2.77
2018-08-13T03:57:43.327Z,1.83
2018-08-13T04:00:14.133Z,2.27
2018-08-13T04:15:46.287Z,2.23
2018-08-13T04:18:13.964Z,2.47
2018-08-13T04:20:41.489Z,2.37
2018-08-13T04:23:08.970Z,2.60
2018-08-13T04:25:36.453Z,2.47
2018-08-13T04:28:04.307Z,2.40
2018-08-13T04:30:32.048Z,2.57
2018-08-13T04:32:59.516Z,2.43
2018-08-13T04:35:27.069Z,2.13
2018-08-13T04:37:54.647Z,2.20
2018-08-13T04:40:22.196Z,2.43
2018-08-13T04:42:49.849Z,2.20
2018-08-13T04:45:17.353Z,2.63
2018-08-13T04:47:51.473Z,2.60
2018-08-13T04:50:19.438Z,2.70
2018-08-13T04:52:48.124Z,2.83
2018-08-13T04:55:15.747Z,3.10
2018-08-13T04:57:43.439Z,2.30
2018-08-13T05:00:10.980Z,2.90
2018-08-13T05:02:38.764Z,3.03
2018-08-13T05:05:07.745Z,2.20
2018-08-13T05:07:35.435Z,2.63
2018-08-13T05:10:03.498Z,2.50
2018-08-13T05:12:32.274Z,2.50
2018-08-13T05:15:00.110Z,2.60
2018-08-13T05:17:27.612Z,2.80
2018-08-13T05:19:55.280Z,2.10
2018-08-13T05:22:24.872Z,4.63
2018-08-13T05:24:53.625Z,2.97
2018-08-13T05:27:21.226Z,2.70
2018-08-13T05:29:48.793Z,3.13
2018-08-13T05:32:16.308Z,3.17
2018-08-13T05:34:44.384Z,3.57
2018-08-13T05:37:11.944Z,3.20
2018-08-13T05:39:39.600Z,3.50
2018-08-13T05:42:07.727Z,3.13
2018-08-13T05:44:35.292Z,3.27
2018-08-13T05:47:02.793Z,3.20
2018-08-13T05:49:31.202Z,3.17
2018-08-13T05:51:58.880Z,5.70
2018-08-13T05:54:27.098Z,3.93
2018-08-13T05:56:55.400Z,3.30
2018-08-13T05:59:23.010Z,3.47
2018-08-13T06:01:50.516Z,3.13
2018-08-13T06:04:18.236Z,3.90
2018-08-13T06:06:46.323Z,4.20
2018-08-13T06:09:13.837Z,5.23
2018-08-13T06:11:41.593Z,5.10
2018-08-13T06:14:09.187Z,5.90
2018-08-13T06:16:36.954Z,5.70
2018-08-13T06:19:04.576Z,5.40
2018-08-13T06:21:32.141Z,6.17
2018-08-13T06:23:59.744Z,4.97
2018-08-13T06:26:27.319Z,5.50
2018-08-13T06:28:55.525Z,4.60
2018-08-13T06:31:24.347Z,5.20
2018-08-13T06:33:52.684Z,4.60
2018-08-13T06:36:20.489Z,4.63
2018-08-13T06:38:48.187Z,4.60
2018-08-13T06:41:15.657Z,4.90
2018-08-13T06:43:43.188Z,4.27
2018-08-13T06:46:10.869Z,4.87
2018-08-13T06:48:38.393Z,4.10
2018-08-13T06:51:05.967Z,5.77
2018-08-13T06:53:34.950Z,5.10
2018-08-13T06:56:02.513Z,5.97
2018-08-13T06:58:30.207Z,6.83
2018-08-13T07:00:58.301Z,7.50
2018-08-13T07:03:25.777Z,6.53
2018-08-13T07:05:53.281Z,7.30
2018-08-13T07:08:20.922Z,6.60
2018-08-13T07:10:48.725Z,5.70
2018-08-13T07:13:16.216Z,5.90
2018-08-13T07:15:43.925Z,5.87
2018-08-13T07:18:12.300Z,5.87
2018-08-13T07:20:41.111Z,4.83
2018-08-13T07:23:08.881Z,5.20
2018-08-13T07:25:37.096Z,5.90
2018-08-13T07:28:05.228Z,6.17
2018-08-13T07:30:32.746Z,5.60
2018-08-13T07:33:00.228Z,5.73
2018-08-13T07:35:28.546Z,5.30
2018-08-13T07:37:56.279Z,6.20
2018-08-13T07:40:23.837Z,6.10
2018-08-13T07:42:51.916Z,5.67
2018-08-13T07:45:19.501Z,6.47
2018-08-13T07:47:48.315Z,5.90
2018-08-13T07:50:15.948Z,5.80
2018-08-13T07:52:44.166Z,6.43
2018-08-13T07:55:12.681Z,6.47
2018-08-13T07:57:41.322Z,5.63
2018-08-13T08:00:11.290Z,7.63
2018-08-13T08:02:38.934Z,6.17
2018-08-13T08:05:07.067Z,6.47
2018-08-13T08:07:34.971Z,6.30
2018-08-13T08:10:03.064Z,6.07
2018-08-13T08:12:30.593Z,7.90
2018-08-13T08:14:58.617Z,7.13
2018-08-13T08:17:26.152Z,7.37
2018-08-13T08:19:53.801Z,7.50
2018-08-13T08:22:21.371Z,7.67
2018-08-13T08:24:49.357Z,8.00
2018-08-13T08:27:16.912Z,9.40
2018-08-13T08:29:44.467Z,9.07
2018-08-13T08:32:12.050Z,10.10
2018-08-13T08:34:39.773Z,8.33
2018-08-13T08:37:07.977Z,6.73
2018-08-13T08:39:35.555Z,8.40
2018-08-13T08:42:03.152Z,7.53
2018-08-13T08:44:30.721Z,7.70
2018-08-13T08:46:58.267Z,6.77
2018-08-13T08:49:26.861Z,7.50
2018-08-13T08:51:54.570Z,7.70
2018-08-13T08:54:23.059Z,8.07
2018-08-13T08:56:51.527Z,7.77
2018-08-13T08:59:19.639Z,6.50
2018-08-13T09:01:47.197Z,7.80
2018-08-13T09:04:14.735Z,7.03
2018-08-13T09:06:42.775Z,7.43
2018-08-13T09:09:12.717Z,7.63
2018-08-13T09:11:40.891Z,6.93
2018-08-13T09:14:09.361Z,7.50
2018-08-13T09:16:39.602Z,8.10
2018-08-13T09:19:18.671Z,7.90
2018-08-13T09:21:50.089Z,7.43
2018-08-13T09:24:28.828Z,9.10
2018-08-13T09:27:07.862Z,9.40
2018-08-13T09:29:46.773Z,9.03
2018-08-13T09:32:27.299Z,9.20
2018-08-13T09:35:00.849Z,9.10
2018-08-13T09:37:28.889Z,9.97
2018-08-13T09:39:57.142Z,9.63
2018-08-13T09:42:25.253Z,10.20
2018-08-13T09:44:54.610Z,10.50
2018-08-13T09:47:22.319Z,9.50
2018-08-13T09:49:49.968Z,10.53
2018-08-13T09:52:17.670Z,8.30
2018-08-13T09:54:45.836Z,8.53
2018-08-13T09:57:13.886Z,9.57
2018-08-13T09:59:41.567Z,8.50
2018-08-13T10:02:09.198Z,9.10
2018-08-13T10:04:37.464Z,9.60
2018-08-13T10:07:06.127Z,8.40
2018-08-13T10:09:34.326Z,9.03
2018-08-13T10:12:02.207Z,10.27
2018-08-13T10:14:29.784Z,9.40
2018-08-13T10:16:58.273Z,9.60
2018-08-13T10:19:26.726Z,9.53
2018-08-13T10:21:55.060Z,10.03
2018-08-13T10:24:23.403Z,8.10
2018-08-13T10:26:51.009Z,9.60
2018-08-13T10:29:18.591Z,9.60
2018-08-13T10:31:46.157Z,10.33
2018-08-13T10:34:13.727Z,11.90
2018-08-13T10:36:41.347Z,10.00
2018-08-13T10:39:09.982Z,10.50
2018-08-13T10:41:38.383Z,10.10
2018-08-13T10:44:07.848Z,9.77
2018-08-13T10:46:35.583Z,10.03
2018-08-13T10:49:03.591Z,8.87
2018-08-13T10:51:31.556Z,9.73
2018-08-13T10:54:00.341Z,9.80
2018-08-13T10:56:29.214Z,9.30
2018-08-13T10:58:57.294Z,8.80
2018-08-13T11:01:25.988Z,9.80
2018-08-13T11:03:55.273Z,9.90
2018-08-13T11:06:24.972Z,9.55
2018-08-13T11:08:53.944Z,7.80
2018-08-13T11:11:22.357Z,8.57
2018-08-13T11:13:51.500Z,9.67
2018-08-13T11:16:19.340Z,9.80
2018-08-13T11:18:48.115Z,10.13
2018-08-13T11:21:16.649Z,9.33
2018-08-13T11:23:45.119Z,9.40
2018-08-13T11:26:14.046Z,9.30
2018-08-13T11:28:42.205Z,9.30
2018-08-13T11:31:11.475Z,10.60
2018-08-13T11:33:40.459Z,11.03
2018-08-13T11:36:08.533Z,11.47
2018-08-13T11:38:36.531Z,10.10
2018-08-13T11:41:04.789Z,10.30
2018-08-13T11:43:33.523Z,9.20
2018-08-13T11:46:01.450Z,9.60
2018-08-13T11:48:29.632Z,8.77
2018-08-13T11:50:57.988Z,8.93
2018-08-13T11:53:26.340Z,9.20
2018-08-13T11:55:55.050Z,8.03
2018-08-13T11:58:23.038Z,10.87
2018-08-13T12:00:52.202Z,10.07
2018-08-13T12:03:21.278Z,9.17
2018-08-13T12:05:49.328Z,8.83
2018-08-13T12:08:17.436Z,8.30
2018-08-13T12:10:46.235Z,8.97
2018-08-13T12:13:14.294Z,9.33
2018-08-13T12:15:42.080Z,9.47
2018-08-13T12:18:11.292Z,8.17
2018-08-13T12:20:40.058Z,8.00
2018-08-13T12:23:09.908Z,7.20
2018-08-13T12:25:38.543Z,8.20
2018-08-13T12:28:06.944Z,7.00
2018-08-13T12:30:37.660Z,6.80
2018-08-13T12:33:06.184Z,7.13
2018-08-13T12:35:37.281Z,6.37
2018-08-13T12:38:05.612Z,4.80
2018-08-13T12:40:34.451Z,5.50
2018-08-13T12:43:03.533Z,4.77
2018-08-13T12:45:31.729Z,4.53
2018-08-13T12:48:00.809Z,4.30
2018-08-13T12:50:29.439Z,3.80
2018-08-13T12:52:57.523Z,4.70
2018-08-13T12:56:49.826Z,4.70
2018-08-13T12:59:18.529Z,3.83
2018-08-13T13:01:46.392Z,4.27
2018-08-13T13:04:14.853Z,4.13
2018-08-13T13:06:43.043Z,4.50
2018-08-13T13:09:12.450Z,3.97
2018-08-13T13:11:41.623Z,3.73
2018-08-13T13:14:10.123Z,3.43
2018-08-13T13:16:39.040Z,3.87
2018-08-13T13:19:07.476Z,2.97
2018-08-13T13:21:35.259Z,3.53
2018-08-13T13:24:04.926Z,3.43
2018-08-13T13:26:33.213Z,3.73
2018-08-13T13:29:02.412Z,3.57
2018-08-13T13:31:31.925Z,3.40
2018-08-13T13:34:00.685Z,3.40
2018-08-13T13:36:28.852Z,3.70
2018-08-13T13:38:56.808Z,3.90
2018-08-13T13:41:24.953Z,3.40
2018-08-13T13:43:54.724Z,3.80
2018-08-13T13:46:24.384Z,3.43
2018-08-13T13:48:52.662Z,3.20
2018-08-13T13:51:23.181Z,3.60
2018-08-13T13:53:52.692Z,3.53
2018-08-13T13:56:23.287Z,3.70
2018-08-13T13:58:53.282Z,3.87
2018-08-13T14:01:21.650Z,3.50
2018-08-13T14:03:50.909Z,3.43
2018-08-13T14:06:19.773Z,3.00
2018-08-13T14:08:48.540Z,4.13
2018-08-13T14:11:16.672Z,4.43
2018-08-13T14:13:45.153Z,3.13
2018-08-13T14:16:13.296Z,2.83
2018-08-13T14:18:42.396Z,3.50
2018-08-13T14:21:10.842Z,3.57
2018-08-13T14:23:38.548Z,3.20
2018-08-13T14:26:07.130Z,3.23
2018-08-13T14:28:36.292Z,2.57
2018-08-13T14:32:08.039Z,2.83
2018-08-13T14:34:36.899Z,3.47
2018-08-13T14:37:04.397Z,3.33
2018-08-13T14:39:32.014Z,2.97
2018-08-13T14:42:00.304Z,2.67
2018-08-13T14:44:28.029Z,2.60
2018-08-13T14:46:55.581Z,3.30
2018-08-13T14:49:23.178Z,2.67
2018-08-13T14:51:50.883Z,2.20
2018-08-13T14:54:18.534Z,2.87
2018-08-13T14:56:46.718Z,3.73
2018-08-13T14:59:14.499Z,3.27
2018-08-13T15:01:42.240Z,3.37
2018-08-13T15:04:09.856Z,3.00
2018-08-13T15:06:37.754Z,3.00
2018-08-13T15:09:08.401Z,2.33
2018-08-13T15:11:38.727Z,3.10
2018-08-13T15:14:08.719Z,3.30
2018-08-13T15:16:36.436Z,2.90
2018-08-13T15:19:04.578Z,2.97
2018-08-13T15:21:33.076Z,3.60
2018-08-13T15:24:01.567Z,2.40
2018-08-13T15:26:30.861Z,4.33
2018-08-13T15:28:58.745Z,5.27
2018-08-13T15:31:26.225Z,3.80
2018-08-13T15:33:53.790Z,2.50
2018-08-13T15:36:21.652Z,3.20
2018-08-13T15:38:49.353Z,3.37
2018-08-13T15:41:17.147Z,3.10
2018-08-13T15:43:44.823Z,2.97
2018-08-13T15:46:12.654Z,3.17
2018-08-13T15:48:40.300Z,3.67
2018-08-13T15:51:08.055Z,3.30
2018-08-13T15:53:35.528Z,4.00
2018-08-13T15:56:03.267Z,2.60
2018-08-13T15:58:30.851Z,3.07
2018-08-13T16:00:58.569Z,2.97
2018-08-13T16:03:26.041Z,2.50
2018-08-13T16:05:53.571Z,2.60
2018-08-13T16:08:21.589Z,2.20
2018-08-13T16:10:49.204Z,3.53
2018-08-13T16:13:16.717Z,1.90
2018-08-13T16:15:44.451Z,3.40
2018-08-13T16:18:12.073Z,3.90
2018-08-13T16:20:39.656Z,3.60
2018-08-13T16:23:08.359Z,3.23
2018-08-13T16:25:35.961Z,2.37
2018-08-13T16:28:03.552Z,2.40
2018-08-13T16:30:31.447Z,2.40
2018-08-13T16:32:59.198Z,2.13
2018-08-13T16:35:26.946Z,2.70
2018-08-13T16:37:55.045Z,2.90
2018-08-13T16:40:22.661Z,1.97
2018-08-13T16:42:51.363Z,1.80
2018-08-13T16:45:20.510Z,1.57
2018-08-13T16:47:48.134Z,1.70
2018-08-13T16:50:22.489Z,1.57
2018-08-13T16:52:50.655Z,1.60
2018-08-13T16:55:18.248Z,2.10
2018-08-13T16:57:45.878Z,1.90
2018-08-13T17:00:15.821Z,1.60
2018-08-13T17:02:45.229Z,1.80
2018-08-13T17:05:12.934Z,3.20
2018-08-13T17:07:41.719Z,1.87
2018-08-13T17:10:13.368Z,1.70
2018-08-13T17:12:41.217Z,1.50
2018-08-13T17:15:09.924Z,1.63
2018-08-13T17:17:37.909Z,1.50
2018-08-13T17:20:06.709Z,1.30
2018-08-13T17:22:34.288Z,1.43
2018-08-13T17:25:02.552Z,1.50
2018-08-13T17:27:30.442Z,1.50
2018-08-13T17:29:58.180Z,1.40
2018-08-13T17:35:24.793Z,1.20
2018-08-13T17:37:52.803Z,1.73
2018-08-13T17:40:22.480Z,1.57
2018-08-13T17:42:51.104Z,1.87
2018-08-13T17:45:19.042Z,1.80
2018-08-13T17:47:47.022Z,2.17
2018-08-13T17:50:18.807Z,1.60
2018-08-13T17:52:46.690Z,1.93
2018-08-13T17:55:14.900Z,1.67
2018-08-13T17:57:43.150Z,15.10
2018-08-13T18:00:16.307Z,6.33
2018-08-13T18:02:44.019Z,2.30
2018-08-13T18:05:14.377Z,2.23
2018-08-13T18:07:42.812Z,1.70
2018-08-13T18:10:11.797Z,2.47
2018-08-13T18:12:40.101Z,2.93
2018-08-13T18:15:10.464Z,2.13
2018-08-13T18:17:38.274Z,3.07
2018-08-13T18:20:05.884Z,2.70
2018-08-13T18:22:33.348Z,2.10
2018-08-13T18:25:01.100Z,2.00
2018-08-13T18:27:28.586Z,2.70
2018-08-13T18:42:55.655Z,1.60
2018-08-13T18:45:23.082Z,2.50
2018-08-13T18:47:50.905Z,2.37
2018-08-13T18:50:19.811Z,2.47
2018-08-13T18:52:47.501Z,2.47
2018-08-13T18:55:17.833Z,1.83
2018-08-13T18:57:46.328Z,1.73
2018-08-13T19:00:17.105Z,1.80
2018-08-13T19:02:45.798Z,1.47
2018-08-13T19:05:14.797Z,13.63
2018-08-13T19:07:43.737Z,12.53
2018-08-13T19:10:12.717Z,6.80
2018-08-13T19:12:40.476Z,12.13
2018-08-13T19:15:10.492Z,8.03
2018-08-13T19:17:39.942Z,2.87
2018-08-13T19:20:09.684Z,2.17
2018-08-13T19:22:37.625Z,1.97
2018-08-13T19:25:08.555Z,2.33
2018-08-13T19:27:36.508Z,2.43
2018-08-13T19:30:05.313Z,2.20
2018-08-13T19:32:33.140Z,2.10
2018-08-13T19:35:02.023Z,3.70
2018-08-13T19:37:29.717Z,2.63
2018-08-13T19:39:57.485Z,2.20
2018-08-13T19:42:25.308Z,2.63
2018-08-13T19:44:53.250Z,1.90
2018-08-13T19:47:20.946Z,2.20
2018-08-13T19:49:48.669Z,2.20
2018-08-13T19:52:16.540Z,2.43
2018-08-13T19:54:44.426Z,2.97
2018-08-13T19:57:12.185Z,2.40
2018-08-13T19:59:40.150Z,2.00
2018-08-13T20:02:07.988Z,2.60
2018-08-13T20:04:35.826Z,2.10
2018-08-13T20:07:03.936Z,2.00
2018-08-13T20:09:32.000Z,2.87
2018-08-13T20:11:59.983Z,2.43
2018-08-13T20:14:28.752Z,3.50
2018-08-13T20:16:56.774Z,15.30
2018-08-13T20:19:25.376Z,11.10
2018-08-13T20:21:53.356Z,11.50
2018-08-13T20:24:23.112Z,6.03
2018-08-13T20:26:51.123Z,3.00
2018-08-13T20:29:18.691Z,2.43
2018-08-13T20:31:46.971Z,3.00
2018-08-13T20:34:14.521Z,2.83
2018-08-13T20:36:42.124Z,2.33
2018-08-13T20:39:13.245Z,2.00
2018-08-13T20:41:41.095Z,2.40
2018-08-13T20:44:09.572Z,1.97
2018-08-13T20:46:37.466Z,2.30
2018-08-13T20:49:05.621Z,2.00
2018-08-13T20:51:33.634Z,2.33
2018-08-13T20:54:01.298Z,16.40
2018-08-13T20:56:28.860Z,16.40
2018-08-13T20:58:56.420Z,19.33
2018-08-13T21:01:24.035Z,5.20
2018-08-13T21:03:51.959Z,2.70
2018-08-13T21:06:19.513Z,2.90
2018-08-13T21:08:47.055Z,2.57
2018-08-13T21:11:14.588Z,2.20
2018-08-13T21:13:42.201Z,2.60
2018-08-13T21:16:09.817Z,2.80
2018-08-13T21:18:37.396Z,2.40
2018-08-13T21:21:04.949Z,3.00
2018-08-13T21:23:32.386Z,3.10
2018-08-13T21:25:59.981Z,2.87
2018-08-13T21:28:27.541Z,2.63
2018-08-13T21:30:55.101Z,3.00
2018-08-13T21:33:22.684Z,3.50
2018-08-13T21:35:50.231Z,2.80
2018-08-13T21:38:17.763Z,3.13
2018-08-13T21:40:45.296Z,3.13
2018-08-13T21:43:12.912Z,3.40
2018-08-13T21:45:40.465Z,2.97
2018-08-13T21:48:07.968Z,2.60
2018-08-13T21:50:35.723Z,2.70
2018-08-13T21:53:03.245Z,3.13
2018-08-13T21:55:31.372Z,2.87
2018-08-13T21:57:58.908Z,3.47
2018-08-13T22:00:30.320Z,2.77
2018-08-13T22:03:00.964Z,2.30
2018-08-13T22:05:28.543Z,1.93
2018-08-13T22:07:56.280Z,2.13
2018-08-13T22:10:23.924Z,2.50
2018-08-13T22:12:51.555Z,2.50
2018-08-13T22:15:25.813Z,2.40
2018-08-13T22:17:54.310Z,2.10
2018-08-13T22:20:22.166Z,2.40
2018-08-13T22:22:49.752Z,2.33
2018-08-13T22:25:19.913Z,3.07
2018-08-13T22:27:47.566Z,1.90
2018-08-13T22:30:15.167Z,2.23
2018-08-13T22:32:42.739Z,2.33
2018-08-13T22:35:10.560Z,2.00
2018-08-13T22:37:40.154Z,2.80
2018-08-13T22:40:10.993Z,2.27
2018-08-13T22:42:38.644Z,2.33
2018-08-13T22:45:07.296Z,2.20
2018-08-13T22:47:34.842Z,2.13
2018-08-13T22:50:03.950Z,1.90
2018-08-13T22:52:31.521Z,2.10
2018-08-13T22:54:58.987Z,2.00
2018-08-13T22:57:26.548Z,1.73
2018-08-13T22:59:54.080Z,2.13
2018-08-13T23:02:21.572Z,2.40
2018-08-13T23:04:49.139Z,2.40
2018-08-13T23:07:16.597Z,2.30
2018-08-13T23:09:44.106Z,2.70
2018-08-13T23:12:11.672Z,2.43
2018-08-13T23:14:39.236Z,1.77
2018-08-13T23:17:06.732Z,2.33
2018-08-13T23:19:34.273Z,2.40
2018-08-13T23:22:01.960Z,2.20
2018-08-13T23:24:29.496Z,2.33
2018-08-13T23:26:57.311Z,3.03
2018-08-13T23:29:24.853Z,2.50
2018-08-13T23:31:52.415Z,2.20
2018-08-13T23:34:19.990Z,1.90
2018-08-13T23:36:47.608Z,2.07
2018-08-13T23:39:15.105Z,2.17
2018-08-13T23:41:43.279Z,2.00
2018-08-13T23:44:10.819Z,1.90
2018-08-13T23:46:38.432Z,2.47
2018-08-13T23:49:06.204Z,2.03
2018-08-13T23:51:33.968Z,2.43
2018-08-13T23:54:01.505Z,1.90
2018-08-13T23:56:29.026Z,2.40
2018-08-13T23:58:56.571Z,2.77
